Pacific Princess — ZCDS3 — position and weather

sailwx.info

Track history (hours):
 
Tides and Currents Weather Stations Pressure Air Temp Water Temp Dewpoint Dewpoint Depression Visibility Wind Speed Wind Dir Waves Ship Positions

Pacific Princess (Bermuda)

Last reported at 2017-Dec-11 02:00 UTC. Time now 2017-Dec-11 13:27 UTC.
Position N 36°12' W 003°54'.

Length 180.5 m; beam 25.6 m; draft 6 m.

Type: Passenger vessel. MMSI: 310504000.

Wind from 210 at 34 knots

Barometer 1007.5 mb
Air temperature 16.5 ° C
Visibility: greater than 10.8 NM
Dewpoint 13.9 ° C
Water temperature 17.0 ° C

Date/timePositionNaut miles runAvg speedWind from/ knotsBaromVisibWave heightAir tempDewpointWater temp
2017-Dec-11 02:00N 36°12' W 003°54'14713.4 210 / 341007.510.8 16.513.917.0
2017-Dec-10 15:00N 37°12' W 001°06'8 5.6 200 / 271012.910.8 17.014.417.0
2017-Dec-10 13:35N 37°18' W 000°59'216.3
2017-Dec-10 13:26N 37°19' W 000°57'816.2
2017-Dec-10 12:57N 37°24' W 000°49'716.1
2017-Dec-10 12:30N 37°28' W 000°42'816.1
2017-Dec-10 12:01N 37°34' W 000°34'815.8
2017-Dec-10 11:31N 37°40' W 000°28'916.1
2017-Dec-10 10:56N 37°48' W 000°22'1116.0
2017-Dec-10 10:16N 37°57' W 000°15'416.0
2017-Dec-10 10:01N 38°01' W 000°13'5613.8
2017-Dec-10 06:00N 38°48' E 000°24'10317.2 230 / 201019.010.8 16.513.517.0
2017-Dec-10 00:00N 40°18' E 001°30'4418.3 190 / 221018.810.8 14.0 4.217.0
2017-Dec-09 21:35N 40°56' E 001°58'517.0
2017-Dec-09 21:19N 41°01' E 002°01'516.6
2017-Dec-09 21:00N 41°05' E 002°05'816.4
2017-Dec-09 20:30N 41°12' E 002°10'6 0.6
2017-Dec-09 09:07N 41°18' E 002°11'48915.7
2017-Dec-08 02:00N 38°24' E 012°06'3320.9 210 / 41029.610.8 14.0 5.617.0
2017-Dec-08 00:25N 38°26' E 012°48'717.4
2017-Dec-08 00:00N 38°25' E 012°57'917.5
2017-Dec-07 23:30N 38°25' E 013°08'917.6
2017-Dec-07 23:00N 38°24' E 013°20'917.4
2017-Dec-07 22:31N 38°24' E 013°31'917.5
2017-Dec-07 22:00N 38°23' E 013°42'917.4
2017-Dec-07 21:30N 38°23' E 013°53'917.2
2017-Dec-07 21:00N 38°22' E 014°04'4117.2
2017-Dec-07 18:39N 38°20' E 014°55'217.3
2017-Dec-07 18:31N 38°20' E 014°58'917.3
2017-Dec-07 18:00N 38°20' E 015°10'917.3
2017-Dec-07 17:31N 38°21' E 015°20'917.2
2017-Dec-07 17:00N 38°23' E 015°31'816.4
2017-Dec-07 16:30N 38°20' E 015°41'710.0
2017-Dec-07 15:49N 38°14' E 015°37'410.6
2017-Dec-07 15:28N 38°12' E 015°34'0 0.2
2017-Dec-07 14:55N 38°12' E 015°33'0 0.0
2017-Dec-07 14:25N 38°12' E 015°33'0 0.0
2017-Dec-07 13:55N 38°12' E 015°33'0 0.0
2017-Dec-07 13:25N 38°12' E 015°33'0 0.0
2017-Dec-07 12:55N 38°12' E 015°33'0 0.0
2017-Dec-07 12:25N 38°12' E 015°33'0 0.0
2017-Dec-07 11:55N 38°12' E 015°33'0 0.0
2017-Dec-07 11:13N 38°12' E 015°33'0 0.0
2017-Dec-07 10:49N 38°12' E 015°33'0 0.0
2017-Dec-07 10:25N 38°12' E 015°33'0 0.0
2017-Dec-07 09:55N 38°12' E 015°33'0 0.0
2017-Dec-07 09:25N 38°12' E 015°33'0 0.0
2017-Dec-07 08:49N 38°12' E 015°33'0 0.0
2017-Dec-07 08:25N 38°12' E 015°33'0 0.0
2017-Dec-07 07:55N 38°12' E 015°33'0 0.0
2017-Dec-07 07:25N 38°12' E 015°33'0 0.0
2017-Dec-07 06:48N 38°12' E 015°33'0 0.2
2017-Dec-07 06:28N 38°11' E 015°34'3 6.2
2017-Dec-07 06:00N 38°14' E 015°36'510.5
2017-Dec-07 05:30N 38°17' E 015°41'2 4.3
2017-Dec-07 05:00N 38°19' E 015°40'3 6.9
2017-Dec-07 04:30N 38°23' E 015°38'5 9.1
2017-Dec-07 04:00N 38°27' E 015°36'612.5
2017-Dec-07 03:30N 38°32' E 015°32'813.2
2017-Dec-07 02:55N 38°39' E 015°28'4 4.4
2017-Dec-07 02:00N 38°42' E 015°24'4320.7 340 / 81033.710.8 15.0 6.918.0
2017-Dec-06 23:56N 39°21' E 015°01'109 5.0
2017-Dec-06 02:00N 40°48' E 013°36'30 0.8 040 / 71035.610.8 12.0 7.916.0
2017-Dec-04 10:08N 40°50' E 014°16'0 0.0
2017-Dec-04 09:56N 40°50' E 014°16'0 0.0
2017-Dec-04 09:26N 40°50' E 014°16'0 0.0
2017-Dec-04 08:26N 40°50' E 014°16'0 0.0
2017-Dec-04 07:26N 40°50' E 014°16'0 0.0
2017-Dec-04 07:00N 40°50' E 014°16'7114.2
2017-Dec-04 02:00N 39°42' E 014°42'1917.0 010 / 131021.210.8 12.0 7.918.0
2017-Dec-04 00:54N 39°27' E 014°56'717.4
2017-Dec-04 00:30N 39°21' E 014°60'5416.7
2017-Dec-03 21:16N 38°33' E 015°34'416.8
2017-Dec-03 21:01N 38°30' E 015°36'817.0
2017-Dec-03 20:31N 38°22' E 015°42'912.3
2017-Dec-03 19:47N 38°14' E 015°37'415.9
2017-Dec-03 19:30N 38°10' E 015°37'613.0
2017-Dec-03 19:00N 38°03' E 015°34'2315.2
2017-Dec-03 17:28N 37°42' E 015°23'15 1.1
2017-Dec-03 04:04N 37°27' E 015°23'114.5
2017-Dec-03 04:00N 37°27' E 015°24'1215.4
2017-Dec-03 03:12N 37°24' E 015°39'316.1
2017-Dec-03 03:00N 37°23' E 015°43'915.8
2017-Dec-03 02:26N 37°21' E 015°54'3 7.4
2017-Dec-03 02:00N 37°18' E 015°54'27013.5 240 / 291016.310.8 13.0 5.618.0
2017-Dec-02 06:00N 36°24' E 021°24'9410.6 160 / 331012.9 5.4 18.016.321.0
2017-Dec-01 21:08N 36°26' E 023°21'211.1
2017-Dec-01 20:59N 36°27' E 023°23'611.8
2017-Dec-01 20:30N 36°30' E 023°28'612.1
2017-Dec-01 20:00N 36°33' E 023°35'612.1
2017-Dec-01 19:30N 36°36' E 023°41'712.7
2017-Dec-01 18:59N 36°40' E 023°48'612.4
2017-Dec-01 18:29N 36°43' E 023°55'612.8
2017-Dec-01 18:01N 36°46' E 024°02'612.7
2017-Dec-01 17:30N 36°50' E 024°08'612.8
2017-Dec-01 17:01N 36°53' E 024°14'612.4
2017-Dec-01 16:31N 36°57' E 024°20'612.4
2017-Dec-01 16:00N 37°01' E 024°27'612.6
2017-Dec-01 15:31N 37°04' E 024°33'612.7
2017-Dec-01 15:01N 37°07' E 024°41'612.9
2017-Dec-01 14:30N 37°10' E 024°48'612.7
2017-Dec-01 14:01N 37°13' E 024°55'612.4
2017-Dec-01 13:30N 37°15' E 025°02'612.6
2017-Dec-01 13:01N 37°16' E 025°10'613.0
2017-Dec-01 12:31N 37°17' E 025°18'714.5
2017-Dec-01 12:01N 37°19' E 025°27'56 6.4
2017-Dec-01 03:14N 37°57' E 026°19'412.4
2017-Dec-01 02:55N 37°53' E 026°21'512.3
2017-Dec-01 02:30N 37°48' E 026°23'  
Track history (hours):
 
Tides and Currents Weather Stations Pressure Air Temp Water Temp Dewpoint Dewpoint Depression Visibility Wind Speed Wind Dir Waves Ship Positions

Pacific Princess (Bermuda)

Last reported at 2017-Dec-11 02:00 UTC. Time now 2017-Dec-11 13:27 UTC.
Position N 36°12' W 003°54'.

Length 180.5 m; beam 25.6 m; draft 6 m.

Type: Passenger vessel. MMSI: 310504000.

Wind from 210 at 34 knots

Barometer 1007.5 mb
Air temperature 16.5 ° C
Visibility: greater than 10.8 NM
Dewpoint 13.9 ° C
Water temperature 17.0 ° C

Date/timePositionNaut miles runAvg speedWind from/ knotsBaromVisibWave heightAir tempDewpointWater temp
2017-Dec-11 02:00N 36°12' W 003°54'14713.4 210 / 341007.510.8 16.513.917.0
2017-Dec-10 15:00N 37°12' W 001°06'8 5.6 200 / 271012.910.8 17.014.417.0
2017-Dec-10 13:35N 37°18' W 000°59'216.3
2017-Dec-10 13:26N 37°19' W 000°57'816.2
2017-Dec-10 12:57N 37°24' W 000°49'716.1
2017-Dec-10 12:30N 37°28' W 000°42'816.1
2017-Dec-10 12:01N 37°34' W 000°34'815.8
2017-Dec-10 11:31N 37°40' W 000°28'916.1
2017-Dec-10 10:56N 37°48' W 000°22'1116.0
2017-Dec-10 10:16N 37°57' W 000°15'416.0
2017-Dec-10 10:01N 38°01' W 000°13'5613.8
2017-Dec-10 06:00N 38°48' E 000°24'10317.2 230 / 201019.010.8 16.513.517.0
2017-Dec-10 00:00N 40°18' E 001°30'4418.3 190 / 221018.810.8 14.0 4.217.0
2017-Dec-09 21:35N 40°56' E 001°58'517.0
2017-Dec-09 21:19N 41°01' E 002°01'516.6
2017-Dec-09 21:00N 41°05' E 002°05'816.4
2017-Dec-09 20:30N 41°12' E 002°10'6 0.6
2017-Dec-09 09:07N 41°18' E 002°11'48915.7
2017-Dec-08 02:00N 38°24' E 012°06'3320.9 210 / 41029.610.8 14.0 5.617.0
2017-Dec-08 00:25N 38°26' E 012°48'717.4
2017-Dec-08 00:00N 38°25' E 012°57'917.5
2017-Dec-07 23:30N 38°25' E 013°08'917.6
2017-Dec-07 23:00N 38°24' E 013°20'917.4
2017-Dec-07 22:31N 38°24' E 013°31'917.5
2017-Dec-07 22:00N 38°23' E 013°42'917.4
2017-Dec-07 21:30N 38°23' E 013°53'917.2
2017-Dec-07 21:00N 38°22' E 014°04'4117.2
2017-Dec-07 18:39N 38°20' E 014°55'217.3
2017-Dec-07 18:31N 38°20' E 014°58'917.3
2017-Dec-07 18:00N 38°20' E 015°10'917.3
2017-Dec-07 17:31N 38°21' E 015°20'917.2
2017-Dec-07 17:00N 38°23' E 015°31'816.4
2017-Dec-07 16:30N 38°20' E 015°41'710.0
2017-Dec-07 15:49N 38°14' E 015°37'410.6
2017-Dec-07 15:28N 38°12' E 015°34'0 0.2
2017-Dec-07 14:55N 38°12' E 015°33'0 0.0
2017-Dec-07 14:25N 38°12' E 015°33'0 0.0
2017-Dec-07 13:55N 38°12' E 015°33'0 0.0
2017-Dec-07 13:25N 38°12' E 015°33'0 0.0
2017-Dec-07 12:55N 38°12' E 015°33'0 0.0
2017-Dec-07 12:25N 38°12' E 015°33'0 0.0
2017-Dec-07 11:55N 38°12' E 015°33'0 0.0
2017-Dec-07 11:13N 38°12' E 015°33'0 0.0
2017-Dec-07 10:49N 38°12' E 015°33'0 0.0
2017-Dec-07 10:25N 38°12' E 015°33'0 0.0
2017-Dec-07 09:55N 38°12' E 015°33'0 0.0
2017-Dec-07 09:25N 38°12' E 015°33'0 0.0
2017-Dec-07 08:49N 38°12' E 015°33'0 0.0
2017-Dec-07 08:25N 38°12' E 015°33'0 0.0
2017-Dec-07 07:55N 38°12' E 015°33'0 0.0
2017-Dec-07 07:25N 38°12' E 015°33'0 0.0
2017-Dec-07 06:48N 38°12' E 015°33'0 0.2
2017-Dec-07 06:28N 38°11' E 015°34'3 6.2
2017-Dec-07 06:00N 38°14' E 015°36'510.5
2017-Dec-07 05:30N 38°17' E 015°41'2 4.3
2017-Dec-07 05:00N 38°19' E 015°40'3 6.9
2017-Dec-07 04:30N 38°23' E 015°38'5 9.1
2017-Dec-07 04:00N 38°27' E 015°36'612.5
2017-Dec-07 03:30N 38°32' E 015°32'813.2
2017-Dec-07 02:55N 38°39' E 015°28'4 4.4
2017-Dec-07 02:00N 38°42' E 015°24'4320.7 340 / 81033.710.8 15.0 6.918.0
2017-Dec-06 23:56N 39°21' E 015°01'109 5.0
2017-Dec-06 02:00N 40°48' E 013°36'30 0.8 040 / 71035.610.8 12.0 7.916.0
2017-Dec-04 10:08N 40°50' E 014°16'0 0.0
2017-Dec-04 09:56N 40°50' E 014°16'0 0.0
2017-Dec-04 09:26N 40°50' E 014°16'0 0.0
2017-Dec-04 08:26N 40°50' E 014°16'0 0.0
2017-Dec-04 07:26N 40°50' E 014°16'0 0.0
2017-Dec-04 07:00N 40°50' E 014°16'7114.2
2017-Dec-04 02:00N 39°42' E 014°42'1917.0 010 / 131021.210.8 12.0 7.918.0
2017-Dec-04 00:54N 39°27' E 014°56'717.4
2017-Dec-04 00:30N 39°21' E 014°60'5416.7
2017-Dec-03 21:16N 38°33' E 015°34'416.8
2017-Dec-03 21:01N 38°30' E 015°36'817.0
2017-Dec-03 20:31N 38°22' E 015°42'912.3
2017-Dec-03 19:47N 38°14' E 015°37'415.9
2017-Dec-03 19:30N 38°10' E 015°37'613.0
2017-Dec-03 19:00N 38°03' E 015°34'2315.2
2017-Dec-03 17:28N 37°42' E 015°23'15 1.1
2017-Dec-03 04:04N 37°27' E 015°23'114.5
2017-Dec-03 04:00N 37°27' E 015°24'1215.4
2017-Dec-03 03:12N 37°24' E 015°39'316.1
2017-Dec-03 03:00N 37°23' E 015°43'915.8
2017-Dec-03 02:26N 37°21' E 015°54'3 7.4
2017-Dec-03 02:00N 37°18' E 015°54'27013.5 240 / 291016.310.8 13.0 5.618.0
2017-Dec-02 06:00N 36°24' E 021°24'9410.6 160 / 331012.9 5.4 18.016.321.0
2017-Dec-01 21:08N 36°26' E 023°21'211.1
2017-Dec-01 20:59N 36°27' E 023°23'611.8
2017-Dec-01 20:30N 36°30' E 023°28'612.1
2017-Dec-01 20:00N 36°33' E 023°35'612.1
2017-Dec-01 19:30N 36°36' E 023°41'712.7
2017-Dec-01 18:59N 36°40' E 023°48'612.4
2017-Dec-01 18:29N 36°43' E 023°55'612.8
2017-Dec-01 18:01N 36°46' E 024°02'612.7
2017-Dec-01 17:30N 36°50' E 024°08'612.8
2017-Dec-01 17:01N 36°53' E 024°14'612.4
2017-Dec-01 16:31N 36°57' E 024°20'612.4
2017-Dec-01 16:00N 37°01' E 024°27'612.6
2017-Dec-01 15:31N 37°04' E 024°33'612.7
2017-Dec-01 15:01N 37°07' E 024°41'612.9
2017-Dec-01 14:30N 37°10' E 024°48'612.7
2017-Dec-01 14:01N 37°13' E 024°55'612.4
2017-Dec-01 13:30N 37°15' E 025°02'612.6
2017-Dec-01 13:01N 37°16' E 025°10'613.0
2017-Dec-01 12:31N 37°17' E 025°18'714.5
2017-Dec-01 12:01N 37°19' E 025°27'56 6.4
2017-Dec-01 03:14N 37°57' E 026°19'412.4
2017-Dec-01 02:55N 37°53' E 026°21'512.3
2017-Dec-01 02:30N 37°48' E 026°23'  

Dump ship's entire track history